Tiempo atmosférico en la estación meteorológica de Zumarraga, Gipuzkoa (420 m.)



Fecha
DESCASC
Temp. máxima en grados centígrados (hora)
DESCASC
Temp. mínima en grados centígrados (hora)
DESCASC
Temp. media en grados centígrados
DESCASC
Racha de viento máxima en m/sg (hora)
DESCASC
Velocidad máxima media en intervalos de 10 minutos(hora)
DESCASC
Precipitaciones diarias en mm
DESCASC
Precipitaciones de 00:00 a 06:00 en mm
DESCASC
Precipitaciones de 06:00 a 12:00 en mm
DESCASC
Precipitaciones de 12:00 a 18:00 en mm
DESCASC
Precipitaciones de 18:00 a 24:00 en mm
DESCASC
17-02-2019 16.9 (14:30) 8.1 (06:10) 12.5 13.61 (23:20) 4.72 (23:20) 0 0 0 0 0
16-02-2019 15.3 (13:30) 5.9 (05:50) 10.6 13.33 (21:10) 4.72 (21:10) 0 0 0 0 0
15-02-2019 15.9 (13:30) 5.9 (08:10) 10.9 7.78 (13:40) 3.89 (14:30) 0 0 0 0 0
14-02-2019 14.2 (14:30) 7 (00:00) 10.6 9.44 (13:20) 3.61 (12:40) 0 0 0 0 0
13-02-2019 13.6 (15:20) 0.1 (00:00) 6.9 5.56 (15:50) 2.5 (15:50) 0 0 0 0 0
12-02-2019 9.6 (15:00) 0 (00:00) 4.8 3.33 (05:00) 1.39 (06:40) 0.2 0.1 0.1 0 0
11-02-2019 6.1 (15:50) 3.2 (00:00) 4.6 8.89 (04:10) 4.17 (04:00) 6.5 0.2 2.1 3.7 0.5
10-02-2019 11.4 (00:00) 4.6 (00:00) 8 18.61 (16:00) 8.33 (16:00) 11.2 0 5.2 6 0
09-02-2019 13.8 (14:20) 4.2 (00:00) 9 16.67 (23:50) 3.61 (23:50) 0 0 0 0 0
08-02-2019 14.2 (14:00) 1.1 (00:00) 7.6 9.44 (17:20) 2.78 (16:10) 0.3 0 0.3 0 0
07-02-2019 8.1 (11:20) 1.8 (00:00) 5 8.06 (13:00) 4.72 (13:00) 0.2 0 0 0.2 0
06-02-2019 14.8 (16:00) 6.4 (00:00) 10.6 7.22 (16:10) 1.94 (16:10) 0.1 0 0.1 0 0
05-02-2019 10.9 (15:30) 4.2 (00:00) 7.5 5.83 (14:50) 3.33 (14:50) 0.9 0.9 0 0 0
04-02-2019 7.7 (14:30) -2.3 (-00:0) 2.7 3.61 (01:10) 1.39 (14:20) 1.1 0.1 0 0 1
03-02-2019 3.3 (14:40) -0.4 (00:00) 1.4 13.33 (04:00) 5.56 (04:00) 13.1 1.5 5.6 5.5 0.5
02-02-2019 4.3 (13:40) 0.3 (00:00) 2.3 19.44 (14:40) 9.44 (07:10) 37.7 10.1 17.5 4.1 6
01-02-2019 8.8 (12:40) 1.1 (00:00) 5 15.83 (13:10) 9.72 (17:50) 8.1 1.6 0 5.3 1.2
31-01-2019 13.2 (17:20) 2.8 (00:00) 8 14.17 (18:10) 6.11 (19:00) 53.5 9 9.8 0 34.7
30-01-2019 6.9 (19:00) 1 (00:00) 4 13.06 (00:30) 6.11 (00:30) 23.4 7.4 7 0 9
29-01-2019 6.4 (16:40) 2.3 (00:00) 4.4 20.83 (16:20) 12.5 (16:20) 21.1 4.7 0.6 11.6 4.2
28-01-2019 6.4 (16:40) 3.2 (00:00) 4.8 20 (12:20) 9.44 (08:10) 36.5 7 12.1 5 12.4
27-01-2019 5.4 (05:20) 2.9 (00:00) 4.2 21.39 (14:40) 12.5 (14:40) 28.3 2.1 5.8 4.9 15.5
26-01-2019 9.3 (13:30) 4.2 (00:00) 6.8 4.44 (00:30) 2.22 (21:40) 0.8 0.7 0.1 0 0
25-01-2019 8 (12:50) 2.5 (00:00) 5.3 14.17 (04:10) 6.94 (04:10) -- 5.7 7.6 1.9 --
24-01-2019 4.2 (00:10) 1.3 (00:00) 2.7 20 (00:30) 6.11 (00:30) 42.7 19 11 6.9 5.8
23-01-2019 7.3 (07:40) 2.3 (00:00) 4.8 25 (12:40) 10.28 (07:20) 72.1 23.7 16.9 14.9 16.6
22-01-2019 3.1 (13:40) 0.5 (00:00) 1.8 11.67 (14:40) 6.11 (14:00) 25.4 0 2.5 11.2 11.7
21-01-2019 5.1 (16:30) 0.5 (00:00) 2.8 10.83 (06:20) 5.28 (11:50) 4.8 3.4 1.3 0 0.1
20-01-2019 6.8 (13:10) 3.3 (00:00) 5.1 11.11 (12:40) 5 (12:50) 16.3 0.1 4 4.4 7.8
19-01-2019 7.9 (14:30) 0.4 (00:00) 4.2 6.67 (13:50) 1.67 (11:50) 1.8 0.6 0 0 1.2

Gráficas

Temp. máximas Temp. mínimas Temp. medias Precipitaciones Rachas de viento máximas Velocidades máximas media en intervalos de 10 minutos

Datos horarios

Fecha y hora oficial Temperatura (ºC) Velocidad del viento (km/h) Dirección del viento Racha (km/h) Dirección de racha Precipitación (mm) Presión (hPa) Tendencia (hPa) Humedad (%)
2019-02-17 23:00:00 10.9 15 Este 44 Este 0 967.9 -0.1 33
2019-02-17 22:00:00 11.3 9 Sudeste 40 Sudeste 0 968.1 0.2 31
2019-02-17 21:00:00 11.7 15 Sudeste 39 Este 0 968 0.2 29
2019-02-17 20:00:00 11.1 7 Sudeste 19 Sudeste 0 968 0.3 29
2019-02-17 19:00:00 11.2 3 Sudeste 13 Sudeste 0 967.9 -0.2 29
2019-02-17 18:00:00 13 5 Sudeste 20 Sudeste 0 967.8 -1 26
2019-02-17 17:00:00 14.3 5 Sudeste 30 Sudeste 0 967.7 -2 24
2019-02-17 16:00:00 15.4 10 Sudeste 34 Este 0 968.1 -2.6 22
2019-02-17 15:00:00 15.9 9 Sudeste 31 Este 0 968.8 -2.5 22
2019-02-17 14:00:00 16.3 7 Sudeste 35 Sudeste 0 969.7 -1.7 21
2019-02-17 13:00:00 15.3 11 Sudeste 29 Sudeste 0 970.7 -1 22
2019-02-17 12:00:00 14.3 9 Sudeste 35 Sudeste 0 971.3 -0.4 23
2019-02-17 11:00:00 13.2 11 Sudeste 31 Este 0 971.4 -0.2 23
2019-02-17 10:00:00 11.5 7 Sudeste 30 Sudeste 0 971.7 0.2 26
2019-02-17 09:00:00 9.4 14 Este 37 Este 0 971.7 0.3 26
2019-02-17 08:00:00 8.9 12 Sudeste 28 Sudeste 0 971.6 0.4 27
2019-02-17 07:00:00 8.9 8 Sudeste 22 Sudeste 0 971.5 0.4 29
2019-02-17 06:00:00 8.7 5 Sudeste 24 Sudeste 0 971.4 -0.4 30
2019-02-17 05:00:00 9 6 Sudeste 25 Sudeste 0 971.2 -0.9 30
2019-02-17 04:00:00 10 13 Sudeste 37 Sudeste 0 971.1 -0.7 30
2019-02-17 03:00:00 9.2 2 Este 30 Sudeste 0 971.8 -0.2 32
2019-02-17 02:00:00 9.7 0 Calma 28 Sudeste 0 972.1 0 32
2019-02-17 01:00:00 10.6 3 Este 35 Este 0 971.8 -0.2 31
2019-02-17 00:00:00 11.1 9 Sudeste 26 Este 0 972 0.1 31
2019-02-16 23:00:00 10.8 5 Sudeste 32 Este 0 972.1 0 33
2019-02-16 22:00:00 11.5 12 Sudeste 48 Sudeste 0 972 0.2 33
2019-02-16 21:00:00 11.4 10 Sudeste 30 Este 0 971.9 0.2 34
2019-02-16 20:00:00 11.2 11 Este 34 Este 0 972.1 -0.4 37
2019-02-16 19:00:00 11.6 13 Sudeste 30 Sudeste 0 971.8 -1 38
2019-02-16 18:00:00 12.3 10 Sudeste 31 Sudeste 0 971.7 -1.9 37
2019-02-16 17:00:00 12.8 5 Sudeste 23 Sudeste 0 972.5 -2.1 37
2019-02-16 16:00:00 13.8 6 Sudeste 25 Este 0 972.8 -2.2 35
2019-02-16 15:00:00 14.3 6 Sudeste 37 Este 0 973.6 -1.9 34
2019-02-16 14:00:00 14.7 10 Sudeste 36 Sudeste 0 974.6 -0.9 37
2019-02-16 13:00:00 14.5 10 Sudeste 35 Sudeste 0 975 -0.5 40
2019-02-16 12:00:00 13.9 11 Sudeste 31 Sudeste 0 975.5 -0.2 42
2019-02-16 11:00:00 12.4 12 Este 27 Este 0 975.5 0 45
2019-02-16 10:00:00 10.4 5 Este 21 Este 0 975.5 0 49
2019-02-16 09:00:00 7.7 0 Calma 12 Sudeste 0 975.7 0 54
2019-02-16 08:00:00 7.1 0 Calma 8 Sur 0 975.5 -0.3 56
2019-02-16 07:00:00 6.4 0 Calma 3 Sur 0 975.5 -0.6 58
2019-02-16 06:00:00 6.2 0 Calma 3 Sur 0 975.7 -0.9 56
2019-02-16 05:00:00 6.4 0 Calma 0 Calma 0 975.8 -0.8 53
2019-02-16 04:00:00 7 0 Calma 0 Calma 0 976.1 -0.4 52
2019-02-16 03:00:00 6.9 0 Calma 3 Sudeste 0 976.6 0.1 51
2019-02-16 02:00:00 8.4 0 Calma 9 Sur 0 976.6 0.1 49
2019-02-16 01:00:00 9.3 2 Sur 9 Sur 0 976.5 0.2 48
2019-02-16 00:00:00 7.7 0 Calma 6 Sudeste 0 976.5 0.5 51
2019-02-15 23:00:00 7.4 0 Calma 2 Sudeste 0 976.5 0.4 50
2019-02-15 22:00:00 8 0 Calma 5 Sudoeste 0 976.3 0.6 45
2019-02-15 21:00:00 9 0 Calma 3 Sur 0 976 0.8 39
2019-02-15 20:00:00 9.2 0 Calma 5 Sudoeste 0 976.1 0.9 34
2019-02-15 19:00:00 10.3 2 Sudeste 17 Este 0 975.7 0.8 29
2019-02-15 18:00:00 13.1 5 Sudeste 17 Sudeste 0 975.2 0 23
2019-02-15 17:00:00 14.1 8 Sudeste 21 Sudeste 0 975.2 -0.6 23
2019-02-15 16:00:00 15.3 7 Sudeste 26 Sudeste 0 974.9 -1.7 23
2019-02-15 15:00:00 15.5 9 Sudeste 26 Sudeste 0 975.2 -1.8 24
2019-02-15 14:00:00 15.8 9 Sudeste 28 Sudeste 0 975.8 -1.1 25
2019-02-15 13:00:00 14.8 8 Sudeste 26 Sudeste 0 976.6 -0.2 32
2019-02-15 12:00:00 13.8 9 Este 21 Este 0 977 0.3 37
2019-02-15 11:00:00 11.8 9 Este 18 Este 0 976.9 0.6 39
2019-02-15 10:00:00 8.2 0 Calma 3 Noroeste 0 976.8 0.7 46
2019-02-15 09:00:00 6.3 0 Calma 3 Norte 0 976.7 0.7 47
2019-02-15 08:00:00 6.3 0 Calma 2 Este 0 976.3 0.3 44
2019-02-15 07:00:00 6.5 0 Calma 19 Sudeste 0 976.1 0.2 47
2019-02-15 06:00:00 7.7 3 Este 14 Este 0 976 -0.3 44
2019-02-15 05:00:00 8.2 0 Calma 15 Sudeste 0 976 -0.1 44
2019-02-15 04:00:00 7.8 0 Calma 22 Sudeste 0 975.9 -0.2 46
2019-02-15 03:00:00 8.5 5 Sudeste 25 Este 0 976.3 0.1 45
2019-02-15 02:00:00 8.4 0 Calma 20 Sudeste 0 976.1 -0.4 46
2019-02-15 01:00:00 9 5 Sudeste 19 Sudeste 0 976.1 -0.3 45
2019-02-15 00:00:00 8.9 5 Este 22 Sudeste 0 976.2 -0.3 45
2019-02-14 23:00:00 8.5 2 Sudeste 15 Sudeste 0 976.5 0.2 44
2019-02-14 22:00:00 8.5 0 Calma 18 Este 0 976.4 0.4 41
2019-02-14 21:00:00 9.6 3 Sudeste 17 Este 0 976.5 0.5 37
2019-02-14 20:00:00 9.9 0 Calma 19 Sudeste 0 976.3 0.4 35
2019-02-14 19:00:00 10.3 0 Calma 14 Sudeste 0 976 0 37
2019-02-14 18:00:00 11.4 3 Sudeste 23 Sudeste 0 976 -0.4 35
2019-02-14 17:00:00 13 6 Sudeste 21 Sudeste 0 975.9 -1.3 31
2019-02-14 16:00:00 13.5 7 Sudeste 23 Este 0 976 -2.2 31
2019-02-14 15:00:00 13.7 7 Sudeste 27 Este 0 976.4 -2.3 34
2019-02-14 14:00:00 13.6 11 Sudeste 34 Sudeste 0 977.2 -1.7 31
2019-02-14 13:00:00 13 13 Sudeste 33 Sudeste 0 978.2 -0.7 33
2019-02-14 12:00:00 11.8 8 Sudeste 30 Sudeste 0 978.7 0 40
2019-02-14 11:00:00 11.1 7 Sudeste 22 Este 0 978.9 0.4 42
2019-02-14 10:00:00 10 8 Sudeste 26 Sudeste 0 978.9 0.6 47
2019-02-14 09:00:00 8.3 10 Sudeste 25 Sudeste 0 978.7 0.3 50
2019-02-14 08:00:00 7.3 3 Sudeste 28 Sudeste 0 978.5 0.3 54
2019-02-14 07:00:00 8.2 7 Sudeste 27 Sudeste 0 978.3 -0.1 53
2019-02-14 06:00:00 8.2 7 Sudeste 28 Este 0 978.4 -0.2 54
2019-02-14 05:00:00 8.2 5 Sudeste 29 Sudeste 0 978.2 -0.4 55
2019-02-14 04:00:00 7.2 2 Este 17 Sudeste 0 978.4 -0.4 58
2019-02-14 03:00:00 7.5 3 Sudeste 21 Este 0 978.6 0 57
2019-02-14 02:00:00 8 4 Sudeste 18 Este 0 978.6 -0.1 57
2019-02-14 01:00:00 8.4 3 Sudeste 19 Este 0 978.8 0.4 58
2019-02-14 00:00:00 7.6 0 Calma 8 Sudeste 0 978.6 0.1 60
2019-02-13 23:00:00 7.3 0 Calma 9 Este 0 978.7 0.4 62
2019-02-13 22:00:00 7.3 0 Calma 0 Calma 0 978.4 0.9 59
2019-02-13 21:00:00 7.3 0 Calma 0 Calma 0 978.5 1.2 56
2019-02-13 20:00:00 7.9 0 Calma 4 Este 0 978.3 1.1 52
2019-02-13 19:00:00 9 0 Calma 11 Sudeste 0 977.5 0.4 47
2019-02-13 18:00:00 10.9 2 Sudeste 15 Sudeste 0 977.3 -0.1 42
2019-02-13 17:00:00 12.5 8 Sudeste 18 Sudeste 0 977.2 -0.8 40
2019-02-13 16:00:00 13.1 6 Sudeste 20 Este 0 977.1 -1.5 39
2019-02-13 15:00:00 13.2 7 Este 17 Este 0 977.4 -1.5 43
2019-02-13 14:00:00 12.5 5 Este 13 Este 0 978 -0.6 49
2019-02-13 13:00:00 10.2 5 Este 10 Este 0 978.6 -0.3 57
2019-02-13 12:00:00 8.6 3 Este 6 Sudeste 0 978.9 0.2 62
2019-02-13 11:00:00 6.1 0 Calma 3 Este 0 978.6 0 97
2019-02-13 10:00:00 3.6 0 Calma 0 Calma 0 978.9 0.3 99
2019-02-13 09:00:00 0.7 0 Calma 0 Calma 0 978.7 0.1 99
2019-02-13 08:00:00 0.1 0 Calma -- -- 0 978.6 -0.2 99
2019-02-13 07:00:00 0.5 0 Calma 0 Calma 0 978.6 -0.3 99
2019-02-13 06:00:00 0.7 0 Calma 0 Calma 0 978.6 -0.6 99
2019-02-13 05:00:00 0.8 0 Calma 0 Calma 0 978.8 -0.9 99
2019-02-13 04:00:00 1.4 0 Calma 0 Calma 0 978.9 -1.1 99
2019-02-13 03:00:00 1.5 0 Calma 0 Calma 0 979.2 -1 99
2019-02-13 02:00:00 1.4 0 Calma 0 Calma 0 979.7 -0.7 99
2019-02-13 01:00:00 1.3 0 Calma 0 Calma 0 980 -0.7 99
2019-02-13 00:00:00 1.6 0 Calma 0 Calma 0 980.2 -0.3 99
2019-02-12 23:00:00 1.9 0 Calma 0 Calma 0 980.4 -0.2 99
2019-02-12 22:00:00 2.2 0 Calma 0 Calma 0 980.7 0.5 98
2019-02-12 21:00:00 3.1 0 Calma -- -- -- 980.5 0.7 96
2019-02-12 20:00:00 4.3 0 Calma 4 Norte 0 980.6 0.5 93
2019-02-12 19:00:00 5.7 0 Calma 7 Noroeste 0 980.2 0 85
2019-02-12 18:00:00 7.4 2 Norte 9 Noroeste 0 979.8 -0.6 72
2019-02-12 17:00:00 8.5 0 Calma 9 Norte 0 980.1 -0.8 65
2019-02-12 16:00:00 9.3 0 Calma 6 Este 0 980.2 -1.5 58
2019-02-12 15:00:00 9.1 0 Calma 5 Noroeste 0 980.4 -2.1 62
2019-02-12 14:00:00 8.5 0 Calma 9 Este 0 980.9 -1.6 66
2019-02-12 13:00:00 6.6 4 Nordeste 8 Este 0 981.7 -0.7 90
2019-02-12 12:00:00 5.5 4 Este 7 Este 0 982.5 0 99
2019-02-12 11:00:00 2.4 4 Este 7 Sudeste 0 982.5 0.3 99
2019-02-12 10:00:00 2.2 2 Este 5 Este 0.1 982.4 0.3 99
2019-02-12 09:00:00 0.4 0 Calma 0 Calma 0 982.5 0.5 99
2019-02-12 08:00:00 0 0 Calma 10 Oeste 0 982.2 0.4 99
2019-02-12 07:00:00 0.5 4 Oeste 10 Sudoeste 0 982.1 0.3 99
2019-02-12 06:00:00 0.7 3 Oeste 11 Sudoeste 0 982 0.2 99
2019-02-12 05:00:00 0.8 3 Oeste 12 Oeste 0 981.8 -0.5 99
2019-02-12 04:00:00 1.9 0 Calma 11 Sudoeste 0 981.8 -0.5 99
2019-02-12 03:00:00 2.7 0 Calma 5 Sudoeste 0.1 981.8 -0.8 99
2019-02-12 02:00:00 3 0 Calma 7 Sudoeste 0 982.3 -0.2 99
2019-02-12 01:00:00 2.9 0 Calma 10 Sudoeste 0 982.3 -0.2 99
2019-02-12 00:00:00 3.2 0 Calma 6 Sudoeste 0 982.6 0.4 99
2019-02-11 23:00:00 4.1 0 Calma 9 Sudoeste 0.2 982.5 0.7 99
2019-02-11 22:00:00 3.9 2 Sudoeste 6 Sudoeste 0 982.5 1 99
2019-02-11 21:00:00 3.9 0 Calma 6 Oeste 0 982.2 1.2 99
2019-02-11 20:00:00 4.1 0 Calma 11 Oeste 0.3 981.8 0.9 99
2019-02-11 19:00:00 4.8 2 Oeste 12 Oeste 0 981.5 0.9 99
2019-02-11 18:00:00 5.1 0 Calma 13 Oeste 0.1 981 0.7 99
2019-02-11 17:00:00 5.4 7 Noroeste 18 Noroeste 0.8 980.9 0.4 98
2019-02-11 16:00:00 5.7 12 Oeste 21 Oeste 0.3 980.6 0.1 98
2019-02-11 15:00:00 5.4 10 Oeste 23 Oeste 0.9 980.3 -0.2 97
2019-02-11 14:00:00 5.3 9 Oeste 21 Noroeste 1 980.5 0.8 97
2019-02-11 13:00:00 5.3 9 Oeste 25 Oeste 0.6 980.5 1.5 99
2019-02-11 12:00:00 5.2 12 Oeste 25 Oeste 0.3 980.5 2 99
2019-02-11 11:00:00 4.6 13 Oeste 22 Noroeste 0.1 979.7 2.2 99
2019-02-11 10:00:00 4.4 11 Oeste 20 Oeste 0 979 2.1 99
2019-02-11 09:00:00 4.2 8 Oeste 18 Oeste 0.3 978.5 2.1 99
2019-02-11 08:00:00 4.1 12 Oeste 20 Oeste 1.4 977.5 1.2 99
2019-02-11 07:00:00 4.3 8 Oeste 21 Oeste 0 976.9 0.7 97
2019-02-11 06:00:00 4.2 10 Oeste 19 Oeste 0.1 976.4 0.4 97
2019-02-11 05:00:00 4.4 11 Oeste 32 Noroeste 0 976.3 0.5 92
2019-02-11 04:00:00 5.2 15 Oeste 31 Oeste 0.1 976.2 1.1 88
2019-02-11 03:00:00 4.8 12 Oeste 22 Oeste 0 976 1.2 91
2019-02-11 02:00:00 4.7 10 Oeste 17 Oeste 0 975.8 1.3 91
2019-02-11 01:00:00 4.3 6 Oeste 24 Noroeste 0 975.1 1.2 89
2019-02-11 00:00:00 4.9 6 Oeste 22 Oeste 0 974.8 1.2 88
2019-02-10 23:00:00 5.2 0 Calma 10 Oeste 0 974.5 1.2 92
2019-02-10 22:00:00 5.3 0 Calma 6 Oeste 0 973.9 2 92
2019-02-10 21:00:00 5.4 2 Oeste 13 Oeste 0 973.6 2.1 92
2019-02-10 20:00:00 5.3 2 Noroeste 10 Oeste 0 973.3 2.3 97
2019-02-10 19:00:00 5.2 0 Calma 13 Oeste 0 971.9 1.5 97
2019-02-10 18:00:00 5.4 6 Oeste 26 Oeste 0.2 971.5 2.4 97
2019-02-10 17:00:00 5.8 5 Oeste 39 Oeste 0 971 2 96
2019-02-10 16:00:00 6 30 Oeste 67 Oeste 0.5 970.4 1.9 89
2019-02-10 15:00:00 6.7 19 Oeste 33 Oeste 1.4 969.1 1.3 97
2019-02-10 14:00:00 6.8 17 Oeste 35 Oeste 1.9 969 2.8 99
2019-02-10 13:00:00 6.5 18 Oeste 37 Oeste 2 968.5 4.3 99
2019-02-10 12:00:00 6.7 21 Oeste 48 Oeste 2.1 967.8 5.1 99
2019-02-10 11:00:00 10.3 7 Noroeste 41 Oeste 0 966.2 3.3 73
2019-02-10 10:00:00 10.1 9 Noroeste 50 Noroeste 0 964.2 1.3 69
2019-02-10 09:00:00 9.3 7 Sur 49 Sur 0.7 962.7 -0.7 74
2019-02-10 08:00:00 8.3 5 Oeste 45 Sudoeste 2 962.9 -0.5 82
2019-02-10 07:00:00 8.9 5 Sudoeste 44 Sudoeste 0.4 962.9 -1.2 68
2019-02-10 06:00:00 9.9 5 Oeste 46 Oeste 0 963.4 -2 58
2019-02-10 05:00:00 10 7 Oeste 67 Oeste 0 963.4 -1.3 56
2019-02-10 04:00:00 9.6 6 Noroeste 38 Sudoeste 0 964.1 -1.2 56
2019-02-10 03:00:00 9.3 4 Sudoeste 38 Sur 0 965.4 0.4 54
2019-02-10 02:00:00 9.9 3 Oeste 47 Sudoeste 0 964.7 -0.8 52
2019-02-10 01:00:00 10.6 3 Noroeste 50 Sudoeste 0 965.3 -0.6 50
2019-02-10 00:00:00 11.4 9 Sur 60 Sudoeste 0 965 -1.3 50
2019-02-09 23:00:00 11.6 4 Sudoeste 37 Sudeste 0 965.5 -1.1 50
2019-02-09 22:00:00 11.9 7 Sur 35 Sur 0 965.9 -0.6 49
2019-02-09 21:00:00 10.8 4 Sudeste 16 Sur 0 966.3 0.3 55
2019-02-09 20:00:00 10.4 2 Sudeste 17 Sudoeste 0 966.6 -0.1 57
2019-02-09 19:00:00 10 0 Calma 12 Sudoeste 0 966.5 -0.9 56
2019-02-09 18:00:00 11.5 0 Calma 21 Oeste 0 966 -1.6 51
2019-02-09 17:00:00 12.3 3 Noroeste 24 Sudeste 0 966.7 -1.6 51
2019-02-09 16:00:00 12.8 0 Calma 19 Sur 0 967.4 -1.9 49
2019-02-09 15:00:00 13.6 2 Sudoeste 21 Sudoeste 0 967.6 -2.5 49
2019-02-09 14:00:00 13.6 2 Oeste 23 Sudoeste 0 968.3 -2.3 51
2019-02-09 13:00:00 12.3 5 Oeste 20 Sudoeste 0 969.3 -1.3 53
2019-02-09 12:00:00 11.7 0 Calma 20 Sudoeste 0 970.1 0 57
2019-02-09 11:00:00 9 3 Este 8 Sudeste 0 970.6 1 68
2019-02-09 10:00:00 6.2 0 Calma 5 Sudeste 0 970.6 1 85
2019-02-09 09:00:00 4.4 0 Calma 10 Sudoeste 0 970.1 0.6 88
2019-02-09 08:00:00 4.8 0 Calma 9 Sudoeste 0 969.6 0.1 86
2019-02-09 07:00:00 4.9 3 Sudoeste 9 Sudoeste 0 969.6 0.2 85
2019-02-09 06:00:00 5.9 0 Calma 6 Sudoeste 0 969.5 0.1 76
2019-02-09 05:00:00 7.2 0 Calma 6 Oeste 0 969.5 0.3 69
2019-02-09 04:00:00 7.6 2 Oeste 9 Oeste 0 969.4 0.6 67
2019-02-09 03:00:00 8.4 0 Calma 5 Oeste 0 969.4 0.6 63
2019-02-09 02:00:00 9 2 Sur 8 Sur 0 969.2 0.7 60
2019-02-09 01:00:00 8.5 0 Calma 11 Oeste 0 968.8 0.5 60
2019-02-09 00:00:00 8.8 0 Calma 18 Oeste 0 968.8 0.8 56
2019-02-08 23:00:00 10.1 4 Sur 26 Sur 0 968.5 0.6 52
2019-02-08 22:00:00 10.3 0 Calma 24 Oeste 0 968.3 0.7 53
2019-02-08 21:00:00 10.1 0 Calma 17 Sur 0 968 0.7 53
2019-02-08 20:00:00 9.7 0 Calma 13 Sur 0 967.9 1 52
2019-02-08 19:00:00 9.9 0 Calma 17 Sur 0 967.6 0.6 49
2019-02-08 18:00:00 12 3 Noroeste 34 Sur 0 967.3 0.1 44
2019-02-08 17:00:00 12.8 3 Noroeste 30 Oeste 0 966.9 -0.6 45
2019-02-08 16:00:00 13.3 3 Oeste 25 Oeste 0 967 -1.3 43
2019-02-08 15:00:00 13.7 5 Noroeste 19 Oeste 0 967.2 -1.6 43
2019-02-08 14:00:00 13.5 0 Calma 24 Sudoeste 0 967.5 -1.7 43
2019-02-08 13:00:00 12.7 3 Sudeste 23 Norte 0 968.3 -1.2 49
2019-02-08 12:00:00 10 4 Este 20 Sudoeste 0.3 968.8 -0.6 63
2019-02-08 11:00:00 9.7 5 Sudeste 26 Sur 0 969.2 0 64
2019-02-08 10:00:00 8 0 Calma 16 Noroeste 0 969.5 0.2 72
2019-02-08 09:00:00 4.2 4 Sudeste 13 Sudeste 0 969.4 -0.3 91
2019-02-08 08:00:00 2.7 0 Calma 7 Este 0 969.2 -0.9 99
2019-02-08 07:00:00 2.7 2 Sudeste 8 Sudeste 0 969.3 -1.3 99
2019-02-08 06:00:00 1.7 0 Calma 10 Sudoeste 0 969.7 -1.6 99
2019-02-08 05:00:00 1.2 0 Calma 5 Oeste 0 970.1 -1.9 99
2019-02-08 04:00:00 1.6 0 Calma 3 Sudoeste 0 970.6 -1.9 99
2019-02-08 03:00:00 1.8 0 Calma 5 Oeste 0 971.3 -1.8 99
2019-02-08 02:00:00 2 0 Calma 3 Sudoeste 0 972 -1.3 99
2019-02-08 01:00:00 2.3 0 Calma 0 Calma 0 972.5 -1.2 99
2019-02-08 00:00:00 1.8 0 Calma 0 Calma 0 973.1 -0.6 98
2019-02-07 23:00:00 2.9 0 Calma 3 Sudoeste 0 973.3 -0.6 97
2019-02-07 22:00:00 2.9 0 Calma 6 Sudoeste 0 973.7 -0.2 97
2019-02-07 21:00:00 3.3 0 Calma 8 Sudoeste 0 973.7 0 94
2019-02-07 20:00:00 4.4 0 Calma 6 Oeste 0 973.9 0.3 92
2019-02-07 19:00:00 6.1 0 Calma 3 Oeste 0 973.9 0.1 86
2019-02-07 18:00:00 6.8 0 Calma 9 Oeste 0 973.7 -0.1 79
2019-02-07 17:00:00 7.2 6 Oeste 14 Oeste 0 973.6 -0.1 76
2019-02-07 16:00:00 7 10 Oeste 26 Oeste 0 973.8 0 85
2019-02-07 15:00:00 7.1 9 Oeste 16 Oeste 0 973.8 0.2 91
2019-02-07 14:00:00 6.8 9 Oeste 26 Oeste 0.1 973.7 0.2 96
2019-02-07 13:00:00 6.8 17 Oeste 29 Oeste 0.1 973.8 0.4 94
2019-02-07 12:00:00 8.1 5 Oeste 15 Oeste 0 973.6 1 85
2019-02-07 11:00:00 7.9 3 Oeste 9 Oeste 0 973.5 1.7 87
2019-02-07 10:00:00 6.9 3 Oeste 12 Oeste 0 973.4 1.9 94
2019-02-07 09:00:00 5.9 3 Oeste 12 Oeste 0 972.6 1.2 97
2019-02-07 08:00:00 5 0 Calma 5 Sudoeste 0 971.8 0.7 99
2019-02-07 07:00:00 4.4 0 Calma 4 Sudoeste 0 971.5 0 98
2019-02-07 06:00:00 4.7 0 Calma 6 Sudoeste 0 971.4 -0.3 97
2019-02-07 05:00:00 5.4 0 Calma 3 Sudoeste 0 971.1 -0.6 96
2019-02-07 04:00:00 6 0 Calma 5 Sudoeste 0 971.5 0.1 93
2019-02-07 03:00:00 6.4 3 Sudoeste 11 Sudoeste 0 971.7 0.8 92
2019-02-07 02:00:00 7.1 4 Oeste 22 Oeste 0 971.7 1.1 89
2019-02-07 01:00:00 7.4 13 Oeste 23 Oeste 0 971.4 1 88
2019-02-07 00:00:00 8 3 Oeste 14 Oeste 0 970.9 0.6 82
2019-02-06 23:00:00 9.1 0 Calma 3 Oeste 0 970.6 0 71
2019-02-06 22:00:00 9 0 Calma 2 Noroeste 0 970.4 0.1 73
2019-02-06 21:00:00 9.3 0 Calma 4 Oeste 0 970.3 0.1 71
2019-02-06 20:00:00 10 0 Calma 8 Sudoeste 0 970.6 0.3 64
2019-02-06 19:00:00 11 0 Calma 13 Sur 0 970.3 -0.2 59
2019-02-06 18:00:00 12.6 0 Calma 12 Noroeste 0 970.2 -0.7 53
2019-02-06 17:00:00 14.4 6 Noroeste 26 Oeste 0 970.3 -1.6 47
2019-02-06 16:00:00 14.5 5 Noroeste 19 Noroeste 0 970.5 -2.5 46
2019-02-06 15:00:00 14.3 3 Este 7 Este 0 970.9 -3.2 55
2019-02-06 14:00:00 12.9 3 Este 8 Este 0 971.9 -2.7 69
2019-02-06 13:00:00 11.9 2 Este 6 Nordeste 0 973 -2.1 81
2019-02-06 12:00:00 8.4 0 Calma 5 Nordeste 0 974.1 -1.2 99
2019-02-06 11:00:00 6.9 0 Calma 4 Sudeste 0 974.6 -0.7 99
2019-02-06 10:00:00 6.5 0 Calma 3 Este 0 975.1 -0.5 99
2019-02-06 09:00:00 6.9 0 Calma 0 Calma 0.1 975.3 -0.6 99
2019-02-06 08:00:00 6.7 0 Calma 0 Calma 0 975.3 -0.7 99
2019-02-06 07:00:00 6.7 0 Calma 0 Calma 0 975.6 -0.9 99
2019-02-06 06:00:00 7 0 Calma 2 Sudeste 0 975.9 -0.9 99
2019-02-06 05:00:00 7 0 Calma 0 Calma 0 976 -1.2 99
2019-02-06 04:00:00 7.3 0 Calma 2 Sudoeste 0 976.5 -1.1 99
2019-02-06 03:00:00 7.5 0 Calma 0 Calma 0 976.8 -1 99
2019-02-06 02:00:00 7.4 0 Calma 0 Calma 0 977.2 -0.7 99
2019-02-06 01:00:00 7.4 0 Calma 0 Calma 0 977.6 -0.4 99
2019-02-06 00:00:00 7.5 0 Calma 3 Sudoeste 0 977.8 -0.2 99
2019-02-05 23:00:00 8 0 Calma 0 Calma 0 977.9 -0.1 99
2019-02-05 22:00:00 8.2 0 Calma 0 Calma 0 978 0.1 99
2019-02-05 21:00:00 8.5 0 Calma 0 Calma 0 978 0.3 99
2019-02-05 20:00:00 8.8 0 Calma 5 Sudeste 0 978 0.5 98
2019-02-05 19:00:00 9.3 0 Calma 3 Noroeste 0 977.9 0.4 92
2019-02-05 18:00:00 9.9 0 Calma 15 Oeste 0 977.7 0 86
2019-02-05 17:00:00 10.4 9 Oeste 15 Oeste 0 977.5 -0.4 79
2019-02-05 16:00:00 10.5 9 Oeste 18 Oeste 0 977.5 -1.1 77
2019-02-05 15:00:00 10.5 9 Oeste 21 Oeste 0 977.7 -1.3 76
2019-02-05 14:00:00 10.2 7 Oeste 19 Oeste 0 977.9 -0.9 77
2019-02-05 13:00:00 9.8 6 Oeste 15 Noroeste 0 978.6 0.2 80
2019-02-05 12:00:00 8.6 3 Oeste 9 Oeste 0 979 1 99
2019-02-05 11:00:00 7.3 0 Calma 3 Oeste 0 978.8 1.4 99
2019-02-05 10:00:00 5.8 0 Calma 6 Sudoeste 0 978.4 1.2 99
2019-02-05 09:00:00 5.3 0 Calma 7 Sudoeste 0 978 0.9 99
2019-02-05 08:00:00 5 0 Calma 4 Sudoeste 0 977.4 0.5 99
2019-02-05 07:00:00 4.9 0 Calma 4 Sudoeste 0 977.2 0.1 99
2019-02-05 06:00:00 4.7 0 Calma 6 Sudoeste 0 977.1 -0.3 99
2019-02-05 05:00:00 4.9 0 Calma 8 Oeste 0 976.9 -0.6 99
2019-02-05 04:00:00 4.7 0 Calma 6 Oeste 0 977.1 -0.6 99
2019-02-05 03:00:00 4.6 0 Calma 10 Oeste 0.3 977.4 0 99
2019-02-05 02:00:00 4.3 0 Calma 4 Sudoeste 0.4 977.5 0.2 99
2019-02-05 01:00:00 4.3 0 Calma 6 Oeste 0.3 977.7 0.3 99
2019-02-05 00:00:00 4.4 0 Calma 9 Oeste 0.6 977.4 0.2 99
2019-02-04 23:00:00 4.2 0 Calma 2 Oeste 0.4 977.3 0.5 98
2019-02-04 22:00:00 4.2 0 Calma 3 Sudoeste 0 977.4 1 94
2019-02-04 21:00:00 4.4 0 Calma 3 Sudoeste 0 977.2 0.8 94
2019-02-04 20:00:00 4.5 0 Calma 4 Sudoeste 0 976.8 0.7 94
2019-02-04 19:00:00 4.6 0 Calma 4 Oeste 0 976.4 0.6 90
2019-02-04 18:00:00 5.5 0 Calma 0 Calma 0 976.4 0.4 78
2019-02-04 17:00:00 6 0 Calma 5 Oeste 0 976.1 0 76
2019-02-04 16:00:00 6.8 0 Calma 9 Oeste 0 975.8 -1 67
2019-02-04 15:00:00 7.1 2 Noroeste 12 Oeste 0 976 -1 58
2019-02-04 14:00:00 7.3 4 Oeste 12 Oeste 0 976.1 -1 63
2019-02-04 13:00:00 5.6 0 Calma 10 Oeste 0 976.8 -- 84
2019-02-04 12:00:00 3 3 Sudeste 7 Este 0 977 0 98
2019-02-04 11:00:00 1.6 0 Calma 5 Sudoeste 0 977.1 0.1 99
2019-02-04 10:00:00 -- 0 Calma 8 Sudoeste 0 -- -- --
2019-02-04 09:00:00 -1.8 0 Calma -- -- 0 977 -0.5 99
2019-02-04 08:00:00 -2 0 Calma -- -- 0 977 -1 99
2019-02-04 07:00:00 -2 0 Calma -- -- 0 977.2 -1.2 99
2019-02-04 06:00:00 -1.7 0 Calma -- -- 0 977.5 -1.1 99
2019-02-04 05:00:00 -1.7 0 Calma -- -- 0 978 -0.8 99
2019-02-04 04:00:00 -1.7 0 Calma 5 Oeste 0 978.4 -0.3 99
2019-02-04 03:00:00 -1.1 2 Oeste 12 Oeste 0.1 978.6 0 99
2019-02-04 02:00:00 -0.8 3 Sudoeste 13 Oeste 0 978.8 -0.3 99
2019-02-04 01:00:00 -0.2 3 Oeste 12 Sudoeste 0 978.7 -0.2 99
2019-02-04 00:00:00 0 0 Calma 15 Noroeste 0 978.6 -0.2 99
2019-02-03 23:00:00 -0.4 3 Oeste 13 Oeste 0 979.1 0.6 99
2019-02-03 22:00:00 0.2 2 Oeste 10 Sudoeste 0 978.9 1.1 99
2019-02-03 21:00:00 1 0 Calma 10 Oeste 0.5 978.8 2 99
2019-02-03 20:00:00 1 2 Oeste 9 Oeste 0 978.5 1.4 99
2019-02-03 19:00:00 1.1 0 Calma 9 Sudoeste 0 977.8 0.5 99
2019-02-03 18:00:00 1.8 0 Calma 17 Oeste 0 976.8 -0.5 98
2019-02-03 17:00:00 1.9 0 Calma 5 Nordeste 0.2 977.1 0.5 96
2019-02-03 16:00:00 2.2 0 Calma 14 Noroeste 1.2 977.3 0.6 95
2019-02-03 15:00:00 1.8 5 Noroeste 21 Oeste 1.4 977.3 0.8 92
2019-02-03 14:00:00 2.1 7 Oeste 22 Noroeste 1.9 976.6 0.8 96
2019-02-03 13:00:00 2.2 9 Oeste 20 Oeste 0.8 976.7 1.6 90
2019-02-03 12:00:00 2.9 4 Norte 30 Oeste 2.2 976.5 2.3 87
2019-02-03 11:00:00 1.4 0 Calma 22 Noroeste 1.3 975.8 2.7 91
2019-02-03 10:00:00 0.8 6 Oeste 30 Noroeste 0.6 975.1 2.4 91
2019-02-03 09:00:00 1.1 6 Oeste 46 Oeste 0.1 974.2 2 85
2019-02-03 08:00:00 1.5 10 Noroeste 29 Oeste -- 973.1 1.6 82
2019-02-03 07:00:00 0.3 17 Noroeste 41 Norte 1.1 972.7 1.6 90
2019-02-03 06:00:00 2 14 Noroeste 37 Noroeste 0 972.2 1.6 73
2019-02-03 05:00:00 2.6 13 Noroeste 34 Oeste 0.1 971.5 1.5 64
2019-02-03 04:00:00 2.4 20 Noroeste 48 Oeste 0.5 971.1 2.3 61
2019-02-03 03:00:00 1.3 11 Oeste 39 Oeste 0.5 970.6 2.5 78
2019-02-03 02:00:00 1.6 11 Noroeste 33 Noroeste 0.2 970 2.8 74
2019-02-03 01:00:00 1.1 13 Oeste 33 Noroeste 0.2 968.8 2.3 82
2019-02-03 00:00:00 2.5 13 Noroeste 51 Oeste 0.7 968.1 2.4 71
2019-02-02 23:00:00 1.2 15 Oeste 39 Oeste 1.1 967.2 1.8 88
2019-02-02 22:00:00 1.2 6 Oeste 41 Noroeste 0.5 966.5 2.1 91
2019-02-02 21:00:00 0.5 19 Noroeste 61 Noroeste 1 965.7 3 90
2019-02-02 20:00:00 1.6 11 Noroeste 44 Noroeste 0.6 965.4 2.8 85
2019-02-02 19:00:00 2.1 18 Noroeste 57 Noroeste 2.1 964.4 2.6 85
2019-02-02 18:00:00 1.9 5 Noroeste 34 Oeste 0.9 962.7 1.4 91
2019-02-02 17:00:00 1.7 6 Noroeste 50 Oeste 1.3 962.6 1.8 91
2019-02-02 16:00:00 1.5 18 Oeste 59 Norte 0.4 961.8 1.8 88
2019-02-02 15:00:00 4.1 15 Noroeste 70 Oeste 0 961.3 2.1 55
2019-02-02 14:00:00 3.3 24 Oeste 59 Noroeste 0 960.8 3.8 69
2019-02-02 13:00:00 2.3 27 Oeste 62 Noroeste 1.5 960 4.5 76
2019-02-02 12:00:00 1.5 18 Noroeste 59 Oeste 1.8 959.2 5.7 87
2019-02-02 11:00:00 1.7 19 Oeste 62 Noroeste 2.8 957 5.6 92
2019-02-02 10:00:00 1.8 24 Oeste 55 Noroeste 1.5 955.5 5.9 88
2019-02-02 09:00:00 3.2 31 Oeste 64 Oeste 0.7 953.5 5.5 82
2019-02-02 08:00:00 2.4 29 Oeste 63 Oeste 2.2 951.4 4.8 94
2019-02-02 07:00:00 2.3 31 Oeste 67 Oeste 8.5 949.6 4 99
2019-02-02 06:00:00 0.7 16 Oeste -- -- -- 948 3 99
2019-02-02 05:00:00 1.5 19 Oeste 32 Oeste 3.5 946.6 2.7 99
2019-02-02 04:00:00 2.5 13 Oeste 26 Oeste 0.2 945.6 2.2 96
2019-02-02 03:00:00 2.5 9 Oeste 28 Oeste 0.4 945 2.8 96
2019-02-02 02:00:00 2.7 11 Oeste 22 Oeste 0 943.9 2.5 96
2019-02-02 01:00:00 1.9 4 Oeste 14 Oeste 0.1 943.4 3.3 99
2019-02-02 00:00:00 1.9 4 Oeste 23 Oeste 0.6 942.2 2.7 99
2019-02-01 23:00:00 1.9 0 Calma 4 Oeste 0 941.4 2.6 99
2019-02-01 22:00:00 1.6 0 Calma 3 Sudoeste 0.1 940.1 1.5 99
2019-02-01 21:00:00 1.5 0 Calma 0 Calma 0 939.5 1.6 99
2019-02-01 20:00:00 1.3 0 Calma 6 Sudeste 0 938.8 2.8 99
2019-02-01 19:00:00 2 2 Sudeste 29 Oeste 0.5 938.6 2.4 97
2019-02-01 18:00:00 1.9 22 Oeste 51 Oeste 1.8 937.9 2 94
2019-02-01 17:00:00 4.6 3 Oeste 30 Oeste 1.8 936 -0.8 77
2019-02-01 16:00:00 4.8 8 Oeste 27 Oeste 1.7 936.2 -1.2 86
2019-02-01 15:00:00 7.3 5 Sudoeste 37 Oeste 0 935.9 -2.3 56
2019-02-01 14:00:00 8 4 Oeste 57 Sudeste 0 936.8 -1.6 52
2019-02-01 13:00:00 8.2 9 Sur 45 Sur 0 937.4 -0.8 51
2019-02-01 12:00:00 7.9 2 Sudoeste 41 Oeste 0 938.2 0.3 52
2019-02-01 11:00:00 7.5 5 Sudoeste 50 Sur 0 938.4 0.9 52
2019-02-01 10:00:00 7.3 8 Sudoeste 39 Sudoeste 0 938.2 1.1 54
2019-02-01 09:00:00 6.7 4 Sudoeste 46 Oeste 0 937.9 -0.5 58
2019-02-01 08:00:00 6.8 6 Oeste 46 Noroeste 0 937.5 -1.8 63
2019-02-01 07:00:00 7.1 7 Sur 44 Sudeste 0 937.1 -2.7 59
2019-02-01 06:00:00 6.5 3 Sudoeste 31 Oeste 0 938.4 -2.2 69
2019-02-01 05:00:00 5.4 3 Noroeste 18 Sudoeste 0 939.3 -2.1 99
2019-02-01 04:00:00 5.9 0 Calma 2 Este 0 939.8 -2.3 99
2019-02-01 03:00:00 6.2 3 Oeste 9 Sudeste 0.3 940.6 -1.4 99
2019-02-01 02:00:00 6.2 2 Este 5 Este 1.3 941.4 -1.2 99
2019-02-01 01:00:00 6.4 0 Calma 7 Oeste 0 942.1 -1.4 99
2019-02-01 00:00:00 6.4 2 Sudeste 24 Sudeste 1.6 942 -1.9 99
2019-01-31 23:00:00 6.4 8 Sudeste 19 Sudeste 6.7 942.6 -0.7 99
2019-01-31 22:00:00 6.7 0 Calma 9 Oeste 3.1 943.5 0.6 99
2019-01-31 21:00:00 7.1 0 Calma 22 Oeste 5.5 943.9 2.2 99
2019-01-31 20:00:00 7.4 17 Oeste 39 Oeste 14.1 943.3 0.8 99
2019-01-31 19:00:00 9.3 22 Oeste 51 Oeste 3.7 942.9 -0.3 90
2019-01-31 18:00:00 13.1 10 Oeste 50 Oeste 0 941.7 -1.7 67
2019-01-31 17:00:00 12.7 6 Oeste 44 Sudoeste 0 942.5 -1.8 71
2019-01-31 16:00:00 12.8 6 Oeste 42 Oeste 0 943.2 -1.9 69
2019-01-31 15:00:00 12.6 5 Oeste 44 Noroeste 0 943.4 -2.3 70
2019-01-31 14:00:00 12.3 3 Oeste 44 Sudoeste 0 944.3 -1.6 72
2019-01-31 13:00:00 11.7 3 Oeste 30 Sudoeste 0 945.1 -1.4 77
2019-01-31 12:00:00 10.6 3 Oeste 30 Sudoeste 0 945.7 -0.9 83
2019-01-31 11:00:00 7.4 4 Sudeste 19 Este 1 945.9 -0.1 99
2019-01-31 10:00:00 5.7 6 Sudeste 15 Este 1 946.5 0.5 99
2019-01-31 09:00:00 5.3 7 Sudeste 12 Sudeste 2.7 946.6 0.3 99
2019-01-31 08:00:00 5 7 Sudeste 15 Sudeste 2 946 -0.7 99
2019-01-31 07:00:00 4.8 7 Sudeste 14 Sudeste 3.1 946 -1.4 99
2019-01-31 06:00:00 4.7 7 Sudeste 15 Este 1.3 946.3 -1.9 99
2019-01-31 05:00:00 4.1 6 Este 14 Sudeste 1.8 946.7 -2.5 99
2019-01-31 04:00:00 3.8 8 Sudeste 15 Este 1.9 947.4 -2.7 99
2019-01-31 03:00:00 3 7 Sudeste 14 Este 1.4 948.2 -2.5 99
2019-01-31 02:00:00 2.8 8 Sudeste 18 Este 1.1 949.2 -2.4 99
2019-01-31 01:00:00 2.9 9 Este 19 Este 1.5 950.1 -1.2 99
2019-01-31 00:00:00 3.7 5 Sudeste 21 Sudeste 3.6 950.7 -1.4 99
2019-01-30 23:00:00 4.2 4 Noroeste 20 Sudoeste 4.2 951.6 -1.3 92
2019-01-30 22:00:00 4.9 2 Oeste 30 Noroeste 0.5 951.3 -2.1 83
2019-01-30 21:00:00 5.1 3 Sur 30 Sudoeste 0.7 952.1 -1.8 83
2019-01-30 20:00:00 6.2 3 Sur 24 Sudoeste 0 952.9 -1.9 64
2019-01-30 19:00:00 6.7 0 Calma 17 Oeste 0 953.4 -2.6 53
2019-01-30 18:00:00 6.5 0 Calma 16 Oeste 0 953.9 -3.1 52
2019-01-30 17:00:00 6.7 4 Sur 19 Sudoeste 0 954.8 -3 54
2019-01-30 16:00:00 6.5 2 Sudeste 13 Sur 0 956 -3 61
2019-01-30 15:00:00 6.5 0 Calma 19 Noroeste 0 957 -3 64
2019-01-30 14:00:00 6.3 2 Oeste 14 Sudoeste 0 957.8 -2.9 68
2019-01-30 13:00:00 5.4 4 Noroeste 13 Noroeste 0 959 -1.1 90
2019-01-30 12:00:00 3 3 Este 13 Oeste 0 960 -0.1 99
2019-01-30 11:00:00 2.2 8 Oeste 19 Noroeste 0.8 960.7 0.9 99
2019-01-30 10:00:00 2 4 Noroeste 21 Oeste 0.5 960.1 0 99
2019-01-30 09:00:00 1.6 8 Oeste 15 Oeste 1.9 960.1 -0.2 99
2019-01-30 08:00:00 1.3 0 Calma 5 Oeste 2.1 959.8 -0.7 99
2019-01-30 07:00:00 1.3 0 Calma 19 Oeste 1.7 960.1 -0.4 99
2019-01-30 06:00:00 1.1 3 Oeste 14 Oeste 4.2 960.3 -0.1 99
2019-01-30 05:00:00 1.7 8 Oeste 32 Noroeste 1.6 960.5 0.2 98
2019-01-30 04:00:00 2.3 16 Oeste 31 Oeste 0.8 960.5 0.6 97
2019-01-30 03:00:00 2.5 18 Oeste 40 Oeste 0.6 960.4 0.3 96
2019-01-30 02:00:00 2.9 20 Oeste 33 Oeste 0.1 960.3 0.5 94
2019-01-30 01:00:00 3 18 Oeste 47 Oeste 0.1 959.9 0.3 92
2019-01-30 00:00:00 2.5 15 Oeste 45 Oeste 0.9 960.1 1.2 94
2019-01-29 23:00:00 3.2 22 Oeste 62 Oeste 0.7 959.8 2 92
2019-01-29 22:00:00 3.5 23 Oeste 59 Oeste 0.8 959.6 2.3 91
2019-01-29 21:00:00 3.9 23 Oeste 68 Oeste 1.4 958.9 2.3 92
2019-01-29 20:00:00 4.9 26 Oeste 65 Oeste 0 957.8 1.7 85
2019-01-29 19:00:00 4.9 24 Oeste 67 Oeste 0.4 957.3 1.4 87
2019-01-29 18:00:00 5.1 40 Oeste 73 Noroeste 0.5 956.6 1 87
2019-01-29 17:00:00 6 38 Oeste 75 Oeste 1.1 956.1 0.3 83
2019-01-29 16:00:00 6 11 Oeste 40 Oeste 2 955.9 -0.7 95
2019-01-29 15:00:00 5.9 12 Noroeste 29 Noroeste 4 955.6 -2.5 91
2019-01-29 14:00:00 5.5 4 Sur 30 Sudoeste 3.6 955.8 -3.2 88
2019-01-29 13:00:00 5.5 4 Oeste 30 Noroeste 0.4 956.6 -3.5 90
2019-01-29 12:00:00 4.1 5 Este 13 Este 0 958.1 -3 99
2019-01-29 11:00:00 4 4 Sudeste 8 Sudeste 0.3 959 -2.6 99
2019-01-29 10:00:00 3.5 4 Sudeste 8 Sudeste 0.3 960.1 -2.8 99
2019-01-29 09:00:00 3.3 0 Calma 4 Sudeste 0 961.1 -2.4 99
2019-01-29 08:00:00 3.3 0 Calma 6 Este 0 961.6 -2.8 99
2019-01-29 07:00:00 3.6 0 Calma 8 Noroeste 0 962.9 -1.8 99
2019-01-29 06:00:00 3.9 2 Oeste 11 Oeste 0.1 963.5 -2 99
2019-01-29 05:00:00 4 5 Oeste 18 Oeste 0.6 964.4 -1.1 99
2019-01-29 04:00:00 4 3 Oeste 21 Oeste 0.6 964.7 -1.8 99
2019-01-29 03:00:00 4.1 11 Oeste 21 Oeste 1.1 965.5 -1.3 99
2019-01-29 02:00:00 3.9 3 Oeste 17 Oeste 1.2 965.5 -1.4 99
2019-01-29 01:00:00 4.2 10 Oeste 27 Sudoeste 1.1 966.5 -0.3 98
2019-01-29 00:00:00 4.2 9 Oeste 37 Oeste 1 966.8 -0.3 94
2019-01-28 23:00:00 4.2 10 Noroeste 43 Oeste 3.4 966.9 0.3 95
2019-01-28 22:00:00 4.6 13 Oeste 40 Oeste 1.2 966.8 0.5 97
2019-01-28 21:00:00 4.7 21 Oeste 51 Noroeste 1.6 967.1 1.6 94
2019-01-28 20:00:00 5.2 23 Noroeste 49 Noroeste 1.2 966.6 1.7 88
2019-01-28 19:00:00 4.7 21 Oeste 71 Noroeste 4 966.3 1.5 93
2019-01-28 18:00:00 5.5 22 Noroeste 46 Oeste 1 965.5 1.4 85
2019-01-28 17:00:00 6.3 21 Noroeste 47 Oeste 0.1 964.9 0.6 79
2019-01-28 16:00:00 5.8 22 Noroeste 48 Noroeste 0.4 964.8 0.7 83
2019-01-28 15:00:00 5.7 25 Noroeste 60 Oeste 0.5 964.1 0.2 85
2019-01-28 14:00:00 5.7 19 Oeste 59 Oeste 1.1 964.3 1.5 91
2019-01-28 13:00:00 5.1 24 Oeste 72 Oeste 1.9 964.1 1.6 91
2019-01-28 12:00:00 5.5 29 Noroeste 60 Oeste 1.8 963.9 2.2 87
2019-01-28 11:00:00 5.9 20 Oeste 60 Oeste 1.2 962.8 2.2 94
2019-01-28 10:00:00 5.8 26 Oeste 58 Oeste 2.4 962.5 1.6 92
2019-01-28 09:00:00 5.8 28 Oeste 64 Oeste 4.3 961.7 0.1 97
2019-01-28 08:00:00 6 30 Noroeste 71 Oeste 1.9 960.6 -1.4 96
2019-01-28 07:00:00 5.9 21 Oeste 56 Noroeste 0.5 960.9 -2 94
2019-01-28 06:00:00 5.9 31 Oeste 59 Noroeste 0.5 961.6 -2.4 97
2019-01-28 05:00:00 4.3 16 Oeste 30 Oeste 1.9 962 -3 99
2019-01-28 04:00:00 3.6 12 Oeste 21 Oeste 1.1 962.9 -2.9 99
2019-01-28 03:00:00 3.2 11 Oeste 32 Oeste 0.6 964 -1.9 99
2019-01-28 02:00:00 3.3 16 Oeste 71 Oeste 0.4 965 -1.5 98
2019-01-28 01:00:00 3.3 15 Oeste 38 Oeste 2.5 965.8 -0.8 98
2019-01-28 00:00:00 3.2 16 Oeste 49 Oeste 4.3 965.9 -0.7 97
2019-01-27 23:00:00 3 10 Oeste 33 Oeste 4.3 966.5 0.1 99
2019-01-27 22:00:00 3.1 18 Oeste 35 Oeste 4.3 966.6 0.2 98
2019-01-27 21:00:00 4.1 12 Oeste 48 Oeste 1.7 966.6 1 90
2019-01-27 20:00:00 4.2 10 Oeste 50 Oeste 0.3 966.4 1.7 86
2019-01-27 19:00:00 4.4 16 Noroeste 43 Oeste 0.6 966.4 1.9 81
2019-01-27 18:00:00 5.1 23 Noroeste 46 Oeste 0 965.6 1.4 71
2019-01-27 17:00:00 5.3 24 Noroeste 70 Oeste 0 964.7 0.3 71
2019-01-27 16:00:00 4.7 25 Oeste 69 Noroeste 0 964.5 1 81
2019-01-27 15:00:00 3.6 26 Noroeste 77 Oeste 2 964.2 0.9 88
2019-01-27 14:00:00 4.6 21 Oeste 66 Oeste 1.3 964.4 2 93
2019-01-27 13:00:00 4.3 26 Oeste 55 Oeste 1.6 963.5 1.3 93
2019-01-27 12:00:00 3.8 28 Noroeste 54 Oeste 3.5 963.3 1.7 95
2019-01-27 11:00:00 4.1 11 Noroeste 33 Oeste 0.3 962.4 1.1 91
2019-01-27 10:00:00 3.9 29 Oeste 59 Oeste 0.9 962.2 0.8 91
2019-01-27 09:00:00 4.6 16 Oeste 40 Oeste 0.2 961.6 0 85
2019-01-27 08:00:00 4.1 22 Oeste 50 Noroeste 0.2 961.3 -0.2 91
2019-01-27 07:00:00 4.6 30 Oeste 60 Oeste 0.7 961.4 -0.2 92
2019-01-27 06:00:00 5.2 17 Oeste 58 Oeste 1.1 961.6 -0.1 99
2019-01-27 05:00:00 5.2 17 Oeste 29 Oeste 1 961.5 -0.6 99
2019-01-27 04:00:00 4 6 Oeste 17 Sudoeste 0 961.6 -1.6 99
2019-01-27 03:00:00 4.2 0 Calma 5 Oeste 0 961.7 -1.8 99
2019-01-27 02:00:00 4.4 0 Calma -- -- -- 962.1 -2.1 99
2019-01-27 01:00:00 4.7 0 Calma 3 Sudeste 0 963.2 -1.1 99
2019-01-27 00:00:00 4.4 0 Calma 7 Oeste 0 963.5 -1.1 99
2019-01-26 23:00:00 4.7 4 Oeste 13 Oeste 0 964.2 -1 99
2019-01-26 22:00:00 5 5 Oeste 16 Oeste 0 964.3 -0.8 99
2019-01-26 21:00:00 4.6 2 Sudoeste 16 Oeste 0 964.6 -0.5 99
2019-01-26 20:00:00 5.6 2 Oeste 9 Oeste 0 965.2 -0.2 98
2019-01-26 19:00:00 6.2 0 Calma 4 Oeste 0 965.1 -1.1 96
2019-01-26 18:00:00 7.8 0 Calma 6 Sudeste 0 965.1 -1.4 90
2019-01-26 17:00:00 9.1 3 Sudeste 6 Sudeste 0 965.4 -2.1 79
2019-01-26 16:00:00 8.9 0 Calma 5 Sudeste 0 966.2 -2.5 77
2019-01-26 15:00:00 8.9 3 Este 8 Este 0 966.5 -3.3 75
2019-01-26 14:00:00 8.8 4 Este 10 Este 0 967.5 -2.9 75
2019-01-26 13:00:00 8.5 0 Calma 6 Sudoeste 0 968.7 -2.1 73
2019-01-26 12:00:00 8 0 Calma 5 Noroeste 0 969.8 -1.3 95
2019-01-26 11:00:00 6.9 0 Calma 6 Noroeste 0 970.4 -0.5 99
2019-01-26 10:00:00 6.1 0 Calma 5 Oeste 0 970.8 0 99
2019-01-26 09:00:00 5.6 2 Oeste 7 Oeste 0 971.1 0 99
2019-01-26 08:00:00 5.7 3 Oeste 12 Oeste 0 970.9 -0.6 99
2019-01-26 07:00:00 5.7 3 Oeste 10 Oeste 0.1 970.8 -1.1 99
2019-01-26 06:00:00 5.8 4 Oeste 14 Noroeste 0 971.1 -1.1 99
2019-01-26 05:00:00 6.1 3 Oeste 12 Oeste 0 971.5 -1 99
2019-01-26 04:00:00 6.1 6 Oeste 13 Oeste 0 971.9 -0.9 99
2019-01-26 03:00:00 6 3 Oeste 10 Oeste 0 972.2 -0.6 99
2019-01-26 02:00:00 6.2 3 Oeste 14 Oeste 0.1 972.5 -0.1 99
2019-01-26 01:00:00 6.5 4 Oeste 16 Oeste 0.6 972.8 0 99
2019-01-26 00:00:00 6.6 4 Noroeste 21 Oeste 0.1 972.8 0.4 99
2019-01-25 23:00:00 6.5 7 Oeste 20 Oeste 0.3 972.6 0.7 99
2019-01-25 22:00:00 6.6 10 Oeste 26 Oeste 0.5 972.8 1.1 99
2019-01-25 21:00:00 6.7 8 Oeste 28 Oeste 0.9 972.4 0.7 99
2019-01-25 20:00:00 6.6 9 Oeste 21 Oeste 0.5 971.9 0.7 99
2019-01-25 19:00:00 6.6 10 Oeste 22 Oeste 0.4 971.7 0.9 99
2019-01-25 18:00:00 6.8 14 Oeste 32 Oeste 0.1 971.7 1 96
2019-01-25 17:00:00 7.2 13 Oeste 39 Noroeste 0 971.2 0.7 93
2019-01-25 16:00:00 7.5 17 Oeste 41 Noroeste 0 970.8 0.4 89
2019-01-25 15:00:00 7.1 17 Oeste 44 Oeste 0.5 970.7 -0.1 94
2019-01-25 14:00:00 7.3 21 Oeste 37 Oeste 1.1 970.5 0.3 98
2019-01-25 13:00:00 7.8 21 Oeste 45 Oeste 0.2 970.4 0.8 96
2019-01-25 12:00:00 7.2 17 Oeste 35 Oeste 1.1 970.8 2.1 99
2019-01-25 11:00:00 6.9 16 Oeste 43 Noroeste 0.5 970.2 2.3 99
2019-01-25 10:00:00 6.7 20 Oeste 39 Oeste 1.9 969.6 2.3 99
2019-01-25 09:00:00 6.7 18 Oeste 34 Oeste 1.5 968.7 1.7 99
2019-01-25 08:00:00 6.9 15 Oeste 46 Oeste 1 967.9 1 99
2019-01-25 07:00:00 7 19 Oeste 44 Oeste 1.6 967.3 0.5 99
2019-01-25 06:00:00 7 23 Oeste 47 Oeste 0.6 967 0.2 97
2019-01-25 05:00:00 6.8 11 Noroeste 51 Oeste 1 966.9 0.6 99
2019-01-25 04:00:00 6.8 20 Oeste 42 Oeste 2.2 966.8 0 99
2019-01-25 03:00:00 6.2 16 Oeste 32 Oeste 1.4 966.8 0 99
2019-01-25 02:00:00 5.6 10 Oeste 23 Oeste 0.4 966.3 -0.6 99
2019-01-25 01:00:00 2.7 0 Calma 5 Sudeste 0.1 966.8 -0.3 99
2019-01-25 00:00:00 2.6 0 Calma 0 Calma 0.3 966.8 0 99
2019-01-24 23:00:00 2.5 0 Calma 4 Este 1.2 966.9 0.7 99
2019-01-24 22:00:00 2.4 0 Calma 3 Este 2.2 967.1 1.3 99
2019-01-24 21:00:00 2.5 0 Calma 2 Sudeste 0.7 966.8 1.6 99
2019-01-24 20:00:00 2.3 0 Calma 0 Calma 0.5 966.2 1.3 99
2019-01-24 19:00:00 2.3 0 Calma 6 Sudeste 0.9 965.8 1.2 99
2019-01-24 18:00:00 2.3 4 Sudeste 8 Este 1 965.2 0.9 99
2019-01-24 17:00:00 2.4 0 Calma 5 Este 0.9 964.9 0.6 99
2019-01-24 16:00:00 2.4 3 Este 7 Este 1.2 964.6 0.6 99
2019-01-24 15:00:00 2.8 0 Calma 7 Noroeste 1.1 964.3 0.3 99
2019-01-24 14:00:00 2.4 0 Calma 4 Oeste 1.5 964.3 0.8 99
2019-01-24 13:00:00 1.6 0 Calma 0 Calma 1.2 964 1.3 99
2019-01-24 12:00:00 1.5 0 Calma 3 Este 0.5 964 2.2 99
2019-01-24 11:00:00 1.4 0 Calma 5 Sudeste 1.5 963.5 2.4 99
2019-01-24 10:00:00 1.8 3 Sudeste 13 Este 2.5 962.7 2.3 99
2019-01-24 09:00:00 3 0 Calma 30 Noroeste 2.2 961.8 1.6 99
2019-01-24 08:00:00 3.1 6 Noroeste 32 Oeste 1.8 961.1 1.2 97
2019-01-24 07:00:00 3.2 11 Noroeste 37 Noroeste 2.5 960.4 0.7 97
2019-01-24 06:00:00 3.3 11 Noroeste 46 Noroeste 3.3 960.2 0.5 97
2019-01-24 05:00:00 3.3 19 Noroeste 60 Norte 2.7 959.9 0.4 97
2019-01-24 04:00:00 3.3 14 Noroeste 47 Norte 2.8 959.7 0.7 97
2019-01-24 03:00:00 3.1 10 Noroeste 50 Norte 2.7 959.7 0.9 95
2019-01-24 02:00:00 3.4 13 Noroeste 45 Noroeste 4.1 959.5 0.7 97
2019-01-24 01:00:00 3.8 18 Noroeste 72 Oeste 3.4 959 1.6 94
2019-01-24 00:00:00 3.9 10 Noroeste 49 Norte 2.5 958.8 1.1 94
2019-01-23 23:00:00 4.2 13 Noroeste 61 Noroeste 4.5 958.8 2.4 94
2019-01-23 22:00:00 4.6 24 Oeste 67 Oeste 2.9 957.4 1.2 93
2019-01-23 21:00:00 5.2 32 Oeste 80 Oeste 3 957.7 1.8 92
2019-01-23 20:00:00 5.4 30 Oeste 73 Oeste 2.2 956.4 0.4 91
2019-01-23 19:00:00 5.5 31 Oeste 75 Oeste 1.5 956.2 0.4 93
2019-01-23 18:00:00 5.2 29 Oeste 72 Noroeste 2.2 955.9 0.3 94
2019-01-23 17:00:00 5.2 23 Oeste 66 Noroeste 1.5 956 0.3 95
2019-01-23 16:00:00 5.3 26 Oeste 62 Oeste 2.2 955.8 -0.2 91
2019-01-23 15:00:00 5.3 19 Oeste 58 Oeste 1.2 955.6 0.4 95
2019-01-23 14:00:00 4.9 30 Oeste 64 Oeste 3.5 955.7 0.4 94
2019-01-23 13:00:00 5.3 17 Noroeste 90 Oeste 4.3 956 1.8 94
2019-01-23 12:00:00 6 23 Oeste 51 Noroeste 1.2 955.2 1.6 96
2019-01-23 11:00:00 6 29 Oeste 67 Oeste 2.8 955.3 3.4 91
2019-01-23 10:00:00 6.3 22 Oeste 62 Oeste 1.4 954.2 2.9 92
2019-01-23 09:00:00 6.6 26 Oeste 73 Oeste 1.7 953.6 1.3 93
2019-01-23 08:00:00 7.2 34 Oeste 67 Oeste 5.1 951.9 -1.3 97
2019-01-23 07:00:00 6.8 32 Oeste 61 Noroeste 4.7 951.3 -3.5 99
2019-01-23 06:00:00 3.4 5 Noroeste 12 Noroeste 3.8 952.3 -3.9 99
2019-01-23 05:00:00 3.1 3 Noroeste 13 Noroeste 2.9 953.2 -3.8 99
2019-01-23 04:00:00 2.8 0 Calma 11 Oeste 4.2 954.8 -2.9 99
2019-01-23 03:00:00 2.5 5 Oeste 19 Noroeste 5 956.2 -2 99
2019-01-23 02:00:00 2.6 8 Oeste 18 Oeste 4 957 -1.4 99
2019-01-23 01:00:00 2.8 7 Oeste 20 Oeste 3.8 957.7 -1.1 99
2019-01-23 00:00:00 2.3 9 Oeste 15 Oeste 2.8 958.2 -1.4 99
2019-01-22 23:00:00 1.8 7 Noroeste 16 Oeste 2.4 958.4 -1.8 99
2019-01-22 22:00:00 1.8 6 Oeste 16 Oeste 1.7 958.8 -1.7 99
2019-01-22 21:00:00 1.8 6 Oeste 19 Oeste 1.7 959.6 -1 99
2019-01-22 20:00:00 2.3 8 Oeste 26 Oeste 2.1 960.2 -0.9 99
2019-01-22 19:00:00 2.8 14 Oeste 32 Noroeste 1 960.5 -1.1 99
2019-01-22 18:00:00 2.9 16 Oeste 38 Oeste 0.2 960.6 -1.4 99
2019-01-22 17:00:00 2.8 13 Oeste 38 Noroeste 0.6 961.1 -1 99
2019-01-22 16:00:00 2.7 14 Oeste 28 Oeste 2.4 961.6 -1 99
2019-01-22 15:00:00 2.4 20 Oeste 42 Oeste 3.4 962 -1.2 99
2019-01-22 14:00:00 3.1 22 Oeste 36 Oeste 2.4 962.1 -1.4 99
2019-01-22 13:00:00 2.6 7 Noroeste 30 Oeste 2.2 962.6 -1.4 98
2019-01-22 12:00:00 2.8 12 Noroeste 24 Oeste 1.5 963.2 -1.5 99
2019-01-22 11:00:00 2.8 9 Noroeste 22 Oeste 0.5 963.5 -1.8 99
2019-01-22 10:00:00 2.1 0 Calma 3 Oeste 0.1 964 -1.9 99
2019-01-22 09:00:00 1.4 0 Calma 4 Oeste 0.4 964.7 -1.9 99
2019-01-22 08:00:00 1.2 0 Calma 2 Noroeste 0 965.3 -2.1 99
2019-01-22 07:00:00 1 0 Calma 3 Sudeste 0 965.9 -2.4 99
2019-01-22 06:00:00 0.7 0 Calma 4 Sudeste 0 966.6 -2.5 99
2019-01-22 05:00:00 0.6 0 Calma 4 Sudoeste 0 967.4 -2.6 99
2019-01-22 04:00:00 0.8 0 Calma 4 Oeste 0 968.3 -2.3 98
2019-01-22 03:00:00 1.2 0 Calma 8 Oeste 0 969.1 -1.8 97
2019-01-22 02:00:00 0.7 0 Calma 8 Noroeste 0 970 -0.9 97
2019-01-22 01:00:00 0.6 3 Oeste 13 Oeste 0 970.6 -1.5 97
2019-01-22 00:00:00 1 2 Oeste 9 Oeste 0 970.9 -1.5 96
2019-01-21 23:00:00 0.6 2 Sudoeste 11 Oeste 0 970.9 -1.1 96
2019-01-21 22:00:00 2.1 3 Oeste 13 Oeste 0.1 972.1 0.1 92
2019-01-21 21:00:00 1.9 7 Oeste 14 Oeste 0 972.4 0.8 91
2019-01-21 20:00:00 2.1 5 Oeste 15 Oeste 0 972 0.6 85
2019-01-21 19:00:00 3.1 6 Oeste 18 Noroeste 0 972 0.8 78
2019-01-21 18:00:00 3.8 13 Noroeste 28 Noroeste 0 971.6 0.2 70
2019-01-21 17:00:00 4.3 11 Oeste 28 Oeste 0 971.4 -0.3 67
2019-01-21 16:00:00 4.7 18 Oeste 30 Oeste 0 971.2 -0.9 64
2019-01-21 15:00:00 4.2 15 Oeste 27 Noroeste 0 971.4 -0.8 81
2019-01-21 14:00:00 4.6 14 Oeste 32 Oeste 0 971.7 -0.2 82
2019-01-21 13:00:00 3.7 18 Oeste 37 Oeste 0 972.1 1.1 82
2019-01-21 12:00:00 3.8 18 Oeste 31 Sudoeste 0 972.2 1.7 83
2019-01-21 11:00:00 4 16 Oeste 30 Oeste 0 971.9 1.9 85
2019-01-21 10:00:00 3.8 10 Oeste 26 Noroeste 0 971 1.3 86
2019-01-21 09:00:00 3.5 10 Noroeste 24 Oeste 0 970.5 1.2 95
2019-01-21 08:00:00 3.4 10 Oeste 25 Oeste 0.1 970 1.2 94
2019-01-21 07:00:00 3.5 5 Oeste 39 Norte 1.2 969.7 1.1 92
2019-01-21 06:00:00 4.2 10 Noroeste 31 Noroeste 0.8 969.3 0.9 94
2019-01-21 05:00:00 3.6 8 Oeste 30 Oeste 0.8 968.8 0.2 99
2019-01-21 04:00:00 3.9 9 Oeste 26 Oeste 0 968.6 -0.3 99
2019-01-21 03:00:00 3.5 8 Noroeste 23 Oeste 0.1 968.4 0.1 99
2019-01-21 02:00:00 3.6 8 Oeste 28 Oeste 0.7 968.6 0.7 99
2019-01-21 01:00:00 3.4 9 Oeste 32 Noroeste 1 968.9 1.5 99
2019-01-21 00:00:00 3.6 9 Noroeste 30 Oeste 2.3 968.3 1.3 99
2019-01-20 23:00:00 3.9 2 Oeste 28 Norte 1.8 967.9 1.2 99
2019-01-20 22:00:00 4.4 7 Oeste 23 Oeste 1.8 967.4 1.3 99
2019-01-20 21:00:00 4.4 6 Oeste 28 Oeste 0.8 967 1.6 99
2019-01-20 20:00:00 4.5 8 Oeste 30 Oeste 0.7 966.7 1.9 98
2019-01-20 19:00:00 4.7 6 Noroeste 30 Noroeste 0.4 966.1 1.7 98
2019-01-20 18:00:00 4.7 13 Oeste 30 Oeste 1.6 965.4 1.1 97
2019-01-20 17:00:00 5.3 13 Oeste 23 Oeste 0 964.8 0.5 91
2019-01-20 16:00:00 6.2 8 Noroeste 29 Sudoeste 0.9 964.4 0.8 94
2019-01-20 15:00:00 5.4 11 Noroeste 31 Oeste 0.3 964.3 0.5 91
2019-01-20 14:00:00 5.3 10 Oeste 39 Noroeste 1.1 964.3 1.1 90
2019-01-20 13:00:00 6.5 17 Oeste 40 Oeste 0.5 963.6 1.2 89
2019-01-20 12:00:00 4.8 15 Oeste 26 Oeste 0.2 963.8 1.9 99
2019-01-20 11:00:00 4.4 15 Oeste 26 Oeste 0.3 963.2 1.9 99
2019-01-20 10:00:00 3.9 14 Oeste 31 Noroeste 0.4 962.4 1.7 99
2019-01-20 09:00:00 3.9 14 Oeste 31 Noroeste 1.6 961.9 1.6 99
2019-01-20 08:00:00 4.1 10 Oeste 21 Oeste 0.1 961.3 1.3 99
2019-01-20 07:00:00 3.9 6 Oeste 15 Oeste 1.4 960.7 0.7 99
2019-01-20 06:00:00 3.4 0 Calma 0 Calma 0 960.3 0.7 99
2019-01-20 05:00:00 3.4 0 Calma 0 Calma 0 960 0.9 99
2019-01-20 04:00:00 3.4 0 Calma 0 Calma 0 960 1.3 99
2019-01-20 03:00:00 3.5 0 Calma 0 Calma 0 959.6 1.4 99
2019-01-20 02:00:00 3.5 0 Calma 0 Calma 0 959.1 1.2 99
2019-01-20 01:00:00 3.6 0 Calma 0 Calma 0.1 958.7 1.1 99
2019-01-20 00:00:00 4 0 Calma 3 Este 0.5 958.2 0.9 99
2019-01-19 23:00:00 4.2 0 Calma 2 Sudeste 0.3 957.9 0.6 97
2019-01-19 22:00:00 4.4 0 Calma 11 Sur 0.2 957.6 0.4 95
2019-01-19 21:00:00 5 4 Sudeste 13 Sudeste 0.2 957.3 -0.6 85
2019-01-19 20:00:00 5.3 2 Sudeste 9 Sudeste 0 957.3 -1.1 79
2019-01-19 19:00:00 5.4 3 Sudeste 14 Sudeste 0 957.2 -1.6 76
2019-01-19 18:00:00 6 2 Sur 13 Oeste 0 957.9 -1.3 73
2019-01-19 17:00:00 6.7 4 Sur 20 Sur 0 958.4 -2.2 67
2019-01-19 16:00:00 7.3 0 Calma 9 Noroeste 0 958.8 -3.1 68
2019-01-19 15:00:00 7.4 3 Sudeste 13 Noroeste 0 959.2 -3.8 69
2019-01-19 14:00:00 7 2 Sudoeste 24 Oeste 0 960.6 -3.1 67
2019-01-19 13:00:00 6.7 3 Sudoeste 18 Oeste 0 961.9 -1.8 67
2019-01-19 12:00:00 6.1 4 Este 10 Nordeste 0 963 -0.7 79
2019-01-19 11:00:00 3.7 0 Calma 4 Sudoeste 0 963.7 -0.1 99
2019-01-19 10:00:00 1.9 0 Calma 6 Sudoeste 0 963.7 -0.1 99
2019-01-19 09:00:00 0.5 0 Calma 10 Sudoeste 0 963.7 0 99
2019-01-19 08:00:00 0.7 0 Calma 7 Sudoeste 0 963.8 -0.3 99
2019-01-19 07:00:00 1.3 0 Calma 5 Sudeste 0 963.8 -0.8 99
2019-01-19 06:00:00 2.2 2 Sudeste 4 Sudeste 0 963.7 -1 99
2019-01-19 05:00:00 2.6 0 Calma 6 Este 0 964.1 -0.9 99
2019-01-19 04:00:00 2.6 0 Calma 3 Oeste 0 964.6 -0.8 99
2019-01-19 03:00:00 2.6 0 Calma 6 Sudeste 0 964.7 -1.1 99
2019-01-19 02:00:00 2.6 0 Calma 5 Sudeste 0.1 965 -0.3 99
2019-01-19 01:00:00 2.7 2 Sudeste 5 Sudeste 0.5 965.4 0.4 99
2019-01-19 00:00:00 2.8 0 Calma 15 Oeste 0.8 965.8 0.8 97